X  Luk Metar data     K49A Gilmer County Airport
Temperatur
61°F Temperatur
61°F Duggpunkt
100% Fugtighed



Vind
0 MPT
0 KM/T
0 M/S
0 KNOB



Stille
N
Nuværende forhold

Let  Regn, Tåge Let Regn, Tåge
Tryk 1019.62 (hPa) - 30.11 (inHg)
Sigt 0.2 (mil) - 0.4 (km)
Lufthavn
Lufthavnskode K49A

Lokation: Gilmer County Airport
Afstand: 18 (mi)

Metar:
K49A 091155Z AUTO 00000KT 1/4SM -RA FG OVC002 16/16 A3011 RMK AO2

Tid: 12-09-2022 06:55 EST